createdAt,value
2018-03-31T00:04:26.712Z,7.40
2018-03-31T00:09:28.866Z,5.93
2018-03-31T00:14:30.914Z,5.90
2018-03-31T00:19:32.941Z,4.43
2018-03-31T00:24:35.205Z,4.93
2018-03-31T00:29:38.134Z,4.57
2018-03-31T00:34:40.160Z,4.57
2018-03-31T00:39:42.189Z,5.10
2018-03-31T00:44:44.209Z,5.63
2018-03-31T00:49:46.256Z,4.17
2018-03-31T00:54:48.289Z,5.30
2018-03-31T00:59:50.348Z,5.00
2018-03-31T01:04:52.575Z,7.00
2018-03-31T01:09:54.661Z,2.80
2018-03-31T01:14:56.705Z,5.57
2018-03-31T01:19:58.776Z,8.90
2018-03-31T01:25:01.021Z,3.87
2018-03-31T01:30:03.830Z,6.27
2018-03-31T01:35:06.687Z,5.90
2018-03-31T01:40:08.749Z,3.37
2018-03-31T01:45:10.807Z,3.43
2018-03-31T01:50:12.874Z,4.73
2018-03-31T01:55:14.954Z,5.00
2018-03-31T02:00:17.039Z,3.67
2018-03-31T02:05:19.081Z,4.80
2018-03-31T02:10:21.250Z,3.33
2018-03-31T02:15:23.290Z,2.83
2018-03-31T02:20:26.316Z,5.40
2018-03-31T02:25:28.453Z,3.03
2018-03-31T02:30:30.504Z,4.10
2018-03-31T02:35:32.556Z,3.00
2018-03-31T02:40:34.629Z,3.40
2018-03-31T02:45:37.649Z,3.33
2018-03-31T02:50:39.723Z,5.43
2018-03-31T02:55:42.687Z,4.77
2018-03-31T03:00:44.976Z,5.60
2018-03-31T03:05:47.092Z,4.70
2018-03-31T03:10:49.883Z,5.23
2018-03-31T03:15:52.735Z,3.93
2018-03-31T03:20:54.848Z,5.63
2018-03-31T03:25:57.003Z,4.93
2018-03-31T03:30:59.068Z,4.53
2018-03-31T03:36:01.221Z,5.43
2018-03-31T03:41:04.233Z,4.73
2018-03-31T03:46:06.315Z,3.30
2018-03-31T03:51:09.146Z,6.87
2018-03-31T03:56:11.203Z,5.77
2018-03-31T04:01:13.365Z,4.03
2018-03-31T04:06:15.596Z,3.80
2018-03-31T04:11:17.670Z,3.37
2018-03-31T04:16:20.103Z,5.27
2018-03-31T04:21:22.464Z,4.20
2018-03-31T04:26:24.623Z,4.40
2018-03-31T04:31:26.900Z,3.00
2018-03-31T04:36:29.868Z,3.57
2018-03-31T04:41:31.896Z,6.47
2018-03-31T04:46:33.990Z,4.20
2018-03-31T04:51:36.196Z,3.37
2018-03-31T04:56:38.208Z,3.80
2018-03-31T05:01:40.246Z,4.43
2018-03-31T05:06:42.364Z,6.03
2018-03-31T05:11:44.722Z,4.27
2018-03-31T05:16:46.820Z,2.80
2018-03-31T05:21:48.948Z,3.27
2018-03-31T05:26:50.978Z,3.80
2018-03-31T05:31:53.248Z,3.23
2018-03-31T05:36:55.329Z,3.30
2018-03-31T05:41:57.362Z,2.27
2018-03-31T05:46:59.786Z,7.73
2018-03-31T05:52:02.074Z,3.43
2018-03-31T05:57:04.123Z,5.57
2018-03-31T06:02:06.240Z,3.03
2018-03-31T06:07:09.181Z,3.57
2018-03-31T06:12:11.217Z,6.30
2018-03-31T06:17:13.477Z,3.17
2018-03-31T06:22:15.562Z,2.50
2018-03-31T06:27:17.623Z,3.87
2018-03-31T06:32:19.698Z,1.90
2018-03-31T06:37:21.996Z,2.93
2018-03-31T06:42:24.026Z,3.40
2018-03-31T06:47:26.848Z,5.13
2018-03-31T06:52:28.896Z,3.00
2018-03-31T06:57:30.967Z,2.97
2018-03-31T07:02:33.112Z,2.30
2018-03-31T07:07:35.197Z,5.37
2018-03-31T07:12:37.272Z,2.60
2018-03-31T07:17:39.360Z,4.97
2018-03-31T07:22:42.270Z,3.00
2018-03-31T07:27:44.450Z,4.13
2018-03-31T07:32:46.705Z,5.50
2018-03-31T07:37:48.823Z,6.67
2018-03-31T07:42:50.953Z,3.00
2018-03-31T07:47:53.052Z,5.67
2018-03-31T07:52:55.923Z,4.73
2018-03-31T07:57:58.038Z,3.90
2018-03-31T08:03:00.125Z,3.30
2018-03-31T08:08:02.211Z,9.83
2018-03-31T08:13:04.368Z,6.03
2018-03-31T08:18:06.464Z,5.50
2018-03-31T08:23:08.550Z,5.57
2018-03-31T08:28:10.603Z,4.33
2018-03-31T08:33:12.721Z,4.47
2018-03-31T08:38:15.516Z,7.17
2018-03-31T08:43:18.320Z,9.90
2018-03-31T08:48:21.329Z,6.20
2018-03-31T08:53:23.378Z,5.93
2018-03-31T08:58:25.633Z,6.83
2018-03-31T09:03:27.686Z,4.03
2018-03-31T09:08:29.933Z,8.90
2018-03-31T09:13:31.985Z,6.47
2018-03-31T09:18:34.213Z,7.33
2018-03-31T09:23:36.527Z,5.33
2018-03-31T09:28:38.809Z,6.83
2018-03-31T09:33:41.807Z,4.93
2018-03-31T09:38:43.844Z,7.00
2018-03-31T09:43:45.982Z,6.07
2018-03-31T09:48:48.818Z,8.50
2018-03-31T09:53:50.850Z,5.57
2018-03-31T09:58:53.366Z,6.33
2018-03-31T10:03:56.161Z,9.27
2018-03-31T10:08:58.274Z,5.63
2018-03-31T10:14:00.335Z,4.67
2018-03-31T10:19:02.389Z,6.00
2018-03-31T10:24:04.428Z,9.40
2018-03-31T10:29:06.587Z,6.73
2018-03-31T10:34:08.730Z,7.27
2018-03-31T10:39:11.558Z,5.53
2018-03-31T10:44:14.560Z,7.70
2018-03-31T10:49:16.600Z,6.30
2018-03-31T10:54:18.672Z,6.10
2018-03-31T10:59:20.720Z,7.00
2018-03-31T11:04:22.909Z,5.10
2018-03-31T11:09:24.948Z,6.03
2018-03-31T11:14:27.009Z,4.40
2018-03-31T11:19:29.281Z,8.17
2018-03-31T11:24:31.391Z,6.13
2018-03-31T11:29:33.639Z,7.03
2018-03-31T11:34:35.677Z,6.53
2018-03-31T11:39:37.779Z,6.67
2018-03-31T11:44:39.904Z,4.63
2018-03-31T11:49:42.015Z,4.40
2018-03-31T11:54:44.083Z,4.90
2018-03-31T11:59:46.397Z,7.77
2018-03-31T12:04:48.458Z,7.23
2018-03-31T12:09:50.692Z,4.50
2018-03-31T12:14:53.690Z,6.43
2018-03-31T12:19:55.754Z,7.47
2018-03-31T12:24:59.744Z,5.57
2018-03-31T12:30:01.787Z,7.47
2018-03-31T12:35:03.838Z,6.33
2018-03-31T12:40:06.843Z,6.13
2018-03-31T12:45:09.883Z,7.67
2018-03-31T12:50:12.792Z,7.13
2018-03-31T12:55:14.863Z,4.60
2018-03-31T13:00:17.277Z,5.90
2018-03-31T13:05:19.318Z,6.93
2018-03-31T13:10:21.347Z,5.30
2018-03-31T13:15:23.404Z,6.67
2018-03-31T13:20:25.472Z,16.30
2018-03-31T13:25:27.678Z,8.23
2018-03-31T13:30:29.758Z,11.50
2018-03-31T13:35:32.768Z,7.53
2018-03-31T13:40:34.980Z,8.53
2018-03-31T13:45:37.051Z,7.70
2018-03-31T13:50:39.126Z,5.70
2018-03-31T13:55:41.198Z,7.57
2018-03-31T14:00:44.319Z,4.97
2018-03-31T14:05:46.379Z,6.83
2018-03-31T14:10:49.187Z,5.70
2018-03-31T14:15:52.170Z,6.93
2018-03-31T14:20:55.734Z,6.63
2018-03-31T14:25:58.037Z,7.20
2018-03-31T14:31:00.106Z,6.43
2018-03-31T14:36:02.172Z,4.63
2018-03-31T14:41:04.953Z,4.87
2018-03-31T14:46:07.084Z,5.33
2018-03-31T14:51:09.463Z,5.47
2018-03-31T14:56:11.635Z,6.87
2018-03-31T15:01:13.718Z,4.63
2018-03-31T15:06:16.539Z,4.73
2018-03-31T15:11:18.901Z,7.40
2018-03-31T15:16:21.721Z,5.60
2018-03-31T15:21:23.752Z,9.17
2018-03-31T15:26:26.709Z,8.50
2018-03-31T15:31:29.099Z,6.07
2018-03-31T15:36:31.126Z,12.20
2018-03-31T15:41:33.153Z,13.43
2018-03-31T15:46:35.202Z,15.00
2018-03-31T15:51:37.299Z,9.87
2018-03-31T15:56:40.387Z,10.43
2018-03-31T16:01:42.432Z,18.63
2018-03-31T16:06:44.489Z,10.50
2018-03-31T16:11:46.540Z,12.03
2018-03-31T16:16:48.584Z,15.70
2018-03-31T16:21:50.891Z,12.73
2018-03-31T16:26:53.668Z,17.47
2018-03-31T16:31:55.812Z,13.90
2018-03-31T16:36:58.124Z,7.90
2018-03-31T16:42:00.384Z,7.93
2018-03-31T16:47:03.684Z,7.80
2018-03-31T16:52:05.784Z,8.83
2018-03-31T16:57:08.603Z,8.00
2018-03-31T17:02:10.681Z,9.27
2018-03-31T17:07:12.949Z,6.90
2018-03-31T17:12:15.238Z,8.00
2018-03-31T17:17:18.853Z,6.37
2018-03-31T17:22:21.146Z,6.97
2018-03-31T17:27:23.210Z,7.40
2018-03-31T17:32:26.193Z,8.87
2018-03-31T17:37:28.244Z,6.20
2018-03-31T17:42:30.356Z,5.60
2018-03-31T17:47:32.687Z,13.80
2018-03-31T17:52:35.552Z,12.40
2018-03-31T17:57:37.664Z,5.87
2018-03-31T18:02:39.833Z,6.47
2018-03-31T18:07:42.091Z,5.67
2018-03-31T18:12:44.512Z,5.10
2018-03-31T18:17:46.680Z,6.43
2018-03-31T18:22:48.888Z,7.23
2018-03-31T18:27:51.270Z,4.63
2018-03-31T18:32:53.357Z,5.80
2018-03-31T18:37:55.467Z,7.70
2018-03-31T18:42:58.315Z,7.17
2018-03-31T18:48:00.554Z,7.47
2018-03-31T18:53:02.699Z,5.93
2018-03-31T18:58:04.765Z,8.67
2018-03-31T19:03:06.830Z,9.37
2018-03-31T19:08:08.900Z,6.83
2018-03-31T19:13:11.019Z,7.33
2018-03-31T19:18:13.113Z,7.87
2018-03-31T19:23:15.155Z,6.83
2018-03-31T19:28:17.476Z,7.87
2018-03-31T19:33:19.664Z,7.17
2018-03-31T19:38:21.857Z,7.90
2018-03-31T19:43:24.099Z,9.70
2018-03-31T19:48:26.372Z,6.37
2018-03-31T19:53:28.549Z,8.20
2018-03-31T19:58:30.673Z,8.00
2018-03-31T20:03:32.899Z,7.50
2018-03-31T20:08:35.231Z,14.83
2018-03-31T20:13:37.310Z,15.23
2018-03-31T20:18:39.473Z,10.32
2018-03-31T20:23:42.028Z,8.40
2018-03-31T20:28:44.085Z,9.20
2018-03-31T20:33:46.225Z,10.37
2018-03-31T20:38:48.496Z,12.90
2018-03-31T20:43:50.702Z,12.07
2018-03-31T20:48:53.161Z,11.70
2018-03-31T20:53:55.501Z,10.63
2018-03-31T20:58:57.874Z,10.90
2018-03-31T21:03:59.946Z,10.30
2018-03-31T21:09:02.103Z,10.63
2018-03-31T21:14:04.183Z,9.80
2018-03-31T21:19:06.518Z,11.83
2018-03-31T21:24:09.040Z,9.70
2018-03-31T21:29:11.229Z,9.60
2018-03-31T21:34:14.433Z,9.53
2018-03-31T21:39:16.652Z,8.67
2018-03-31T21:44:19.264Z,9.30
2018-03-31T21:49:21.516Z,9.23
2018-03-31T21:54:23.678Z,10.83
2018-03-31T21:59:25.730Z,8.80
2018-03-31T22:04:28.058Z,9.07
2018-03-31T22:09:30.361Z,9.40
2018-03-31T22:14:38.898Z,11.43
2018-03-31T22:19:41.089Z,72.73
2018-03-31T22:24:43.923Z,33.47
2018-03-31T22:29:46.112Z,30.67
2018-03-31T22:34:48.210Z,26.20
2018-03-31T22:39:50.270Z,23.43
2018-03-31T22:44:52.336Z,17.73
2018-03-31T22:49:54.466Z,18.17
2018-03-31T22:54:56.496Z,16.80
2018-03-31T22:59:58.554Z,20.43
2018-03-31T23:05:00.609Z,17.53
2018-03-31T23:10:02.676Z,14.20
2018-03-31T23:15:04.721Z,16.67
2018-03-31T23:20:06.760Z,13.43
2018-03-31T23:25:09.164Z,16.43
2018-03-31T23:30:11.291Z,12.33
2018-03-31T23:35:13.459Z,12.53
2018-03-31T23:40:15.684Z,17.33
2018-03-31T23:45:17.735Z,16.10
2018-03-31T23:50:20.222Z,13.93
2018-03-31T23:55:22.339Z,12.53
